Time;durP1;ratioP1;P1;durP2;ratioP2;P2;SDS_P1;SDS_P2;PMS_P1;PMS_P2;Temp;Humidity;BMP_temperature;BMP_pressure;BME280_temperature;BME280_humidity;BME280_pressure;Samples;Min_cycle;Max_cycle;Signal;HPM_P1;HPM_P2
2022/11/30 00:00:24;;;;;;;85.40;33.35;;;10.70;99.90;;;;;;4981251;28;20046;-76
2022/11/30 00:02:52;;;;;;;83.35;31.55;;;10.70;99.90;;;;;;4979711;28;20043;-77
2022/11/30 00:05:22;;;;;;;76.55;30.85;;;10.70;99.90;;;;;;4969512;28;20053;-77
2022/11/30 00:07:48;;;;;;;88.30;34.30;;;10.70;99.90;;;;;;4969976;28;20046;-77
2022/11/30 00:10:17;;;;;;;80.88;31.02;;;10.70;99.90;;;;;;4969638;28;20384;-77
2022/11/30 00:12:44;;;;;;;81.57;31.58;;;10.70;99.90;;;;;;4968889;28;20094;-77
2022/11/30 00:15:13;;;;;;;88.75;32.67;;;10.70;99.90;;;;;;4972811;28;20068;-76
2022/11/30 00:17:40;;;;;;;87.72;33.65;;;10.70;99.90;;;;;;4989291;28;20049;-76
2022/11/30 00:20:08;;;;;;;89.80;34.65;;;10.70;99.90;;;;;;4989256;28;20046;-77
2022/11/30 00:22:35;;;;;;;81.90;32.53;;;10.70;99.90;;;;;;4983637;28;20526;-76
2022/11/30 00:25:03;;;;;;;86.82;32.67;;;10.70;99.90;;;;;;4966839;28;20053;-76
2022/11/30 00:27:32;;;;;;;84.47;32.90;;;10.70;99.90;;;;;;4969960;28;20051;-77
2022/11/30 00:29:59;;;;;;;77.32;31.40;;;10.70;99.90;;;;;;4953368;28;20077;-76
2022/11/30 00:32:26;;;;;;;79.35;31.30;;;10.70;99.90;;;;;;4979864;28;20047;-76
2022/11/30 00:34:54;;;;;;;74.07;31.00;;;10.70;99.90;;;;;;4967504;28;20058;-77
2022/11/30 00:37:21;;;;;;;78.57;29.83;;;10.70;99.90;;;;;;4969903;28;20045;-76
2022/11/30 00:39:47;;;;;;;72.28;30.35;;;10.70;99.90;;;;;;4970124;28;20047;-76
2022/11/30 00:42:14;;;;;;;73.18;29.92;;;10.70;99.90;;;;;;4968703;28;20585;-76
2022/11/30 00:44:43;;;;;;;67.07;28.98;;;10.70;99.90;;;;;;4961148;28;20050;-76
2022/11/30 00:47:10;;;;;;;67.97;29.10;;;10.70;99.90;;;;;;4973164;28;20046;-76
2022/11/30 00:49:37;;;;;;;59.92;27.55;;;10.70;99.90;;;;;;4980853;28;20076;-76
2022/11/30 00:52:04;;;;;;;60.85;26.58;;;10.70;99.90;;;;;;4992660;28;20046;-77
2022/11/30 00:54:31;;;;;;;57.75;25.40;;;10.70;99.90;;;;;;4970879;28;20038;-77
2022/11/30 00:56:58;;;;;;;58.17;25.70;;;10.70;99.90;;;;;;4973113;28;20042;-77
2022/11/30 00:59:25;;;;;;;50.90;23.95;;;10.70;99.90;;;;;;4972686;28;20039;-77
2022/11/30 01:01:54;;;;;;;55.80;24.35;;;10.70;99.90;;;;;;4972964;28;20050;-76
2022/11/30 01:04:21;;;;;;;51.45;24.15;;;10.70;99.90;;;;;;4969499;28;20233;-77
2022/11/30 01:06:48;;;;;;;48.83;22.27;;;10.70;99.90;;;;;;4970674;28;20510;-77
2022/11/30 01:09:16;;;;;;;46.35;22.00;;;10.70;99.90;;;;;;4973063;28;20038;-77
2022/11/30 01:11:42;;;;;;;46.03;21.77;;;10.70;99.90;;;;;;4973089;28;20038;-77
2022/11/30 01:14:10;;;;;;;45.70;21.10;;;10.70;99.90;;;;;;4969533;28;20035;-77
2022/11/30 01:16:36;;;;;;;44.67;21.38;;;10.70;99.90;;;;;;4971652;28;20042;-76
2022/11/30 01:19:05;;;;;;;38.22;18.90;;;10.80;99.90;;;;;;4972793;28;20058;-76
2022/11/30 01:21:34;;;;;;;41.90;19.55;;;10.70;99.90;;;;;;4972102;28;20374;-77
2022/11/30 01:24:00;;;;;;;40.20;20.05;;;10.70;99.90;;;;;;4975596;28;20042;-76
2022/11/30 01:26:27;;;;;;;46.92;21.55;;;10.70;99.90;;;;;;4972504;28;20117;-77
2022/11/30 01:28:55;;;;;;;44.22;21.17;;;10.70;99.90;;;;;;4972121;28;20121;-77
2022/11/30 01:31:23;;;;;;;45.83;20.60;;;10.70;99.90;;;;;;4962813;28;20268;-77
2022/11/30 01:33:50;;;;;;;51.63;20.73;;;10.70;99.90;;;;;;4970278;28;20062;-76
2022/11/30 01:36:21;;;;;;;49.70;21.85;;;10.70;99.90;;;;;;4967076;28;20043;-77
2022/11/30 01:38:49;;;;;;;56.53;21.55;;;10.80;99.90;;;;;;4970466;28;20134;-77
2022/11/30 01:41:20;;;;;;;51.83;22.13;;;10.80;99.90;;;;;;4970702;28;20043;-76
2022/11/30 01:43:51;;;;;;;50.70;22.83;;;10.80;99.90;;;;;;5024001;23;20768;-85
2022/11/30 01:46:22;;;;;;;52.80;23.20;;;10.70;99.90;;;;;;5000864;28;20084;-85
2022/11/30 01:48:55;;;;;;;48.80;22.30;;;10.70;99.90;;;;;;4992996;28;20037;-85
2022/11/30 01:51:23;;;;;;;49.95;20.75;;;10.80;99.90;;;;;;5012146;28;20090;-85
2022/11/30 01:53:51;;;;;;;51.03;21.48;;;10.80;99.90;;;;;;5000635;28;20043;-86
2022/11/30 01:56:18;;;;;;;47.78;21.27;;;10.70;99.90;;;;;;5018165;28;20444;-85
2022/11/30 01:58:45;;;;;;;47.08;20.98;;;10.70;99.90;;;;;;4975586;28;20046;-85
2022/11/30 02:01:12;;;;;;;45.42;21.35;;;10.70;99.90;;;;;;4992173;28;20038;-85
2022/11/30 02:03:43;;;;;;;49.45;21.67;;;10.70;99.90;;;;;;4992230;28;20053;-86
2022/11/30 02:06:10;;;;;;;;;;;10.70;99.90;;;;;;4993147;28;20058;-85
2022/11/30 02:08:38;;;;;;;47.78;21.02;;;10.70;99.90;;;;;;4989134;28;20418;-85
2022/11/30 02:11:06;;;;;;;48.67;22.17;;;10.70;99.90;;;;;;4992772;28;20041;-85
2022/11/30 02:13:55;;;;;;;48.17;21.45;;;10.70;99.90;;;;;;4994919;28;20056;-85
2022/11/30 02:16:28;;;;;;;50.28;22.38;;;10.80;99.90;;;;;;4986608;28;20060;-85
2022/11/30 02:19:02;;;;;;;50.58;21.75;;;10.80;99.90;;;;;;4989774;28;20046;-85
2022/11/30 02:21:35;;;;;;;55.63;25.95;;;10.80;99.90;;;;;;4991391;28;20406;-84
2022/11/30 02:24:35;;;;;;;62.10;27.55;;;10.80;99.90;;;;;;4991097;28;20058;-85
2022/11/30 02:27:13;;;;;;;64.78;28.73;;;10.80;99.90;;;;;;4991907;28;20057;-85
2022/11/30 02:29:43;;;;;;;83.53;35.67;;;10.80;99.90;;;;;;4978173;28;20046;-85
2022/11/30 02:32:15;;;;;;;78.65;35.45;;;10.70;99.90;;;;;;4971709;28;20125;-84
2022/11/30 02:34:43;;;;;;;79.35;35.55;;;10.70;99.90;;;;;;4959395;28;20043;-85
2022/11/30 02:37:12;;;;;;;80.05;34.28;;;10.70;99.90;;;;;;4987180;28;20042;-85
2022/11/30 02:39:39;;;;;;;73.10;33.45;;;10.70;99.90;;;;;;4990904;28;20057;-86
2022/11/30 02:42:09;;;;;;;80.03;34.22;;;10.70;99.90;;;;;;4989754;28;20046;-85
2022/11/30 02:44:36;;;;;;;72.05;32.67;;;10.70;99.90;;;;;;4995400;28;20056;-85
2022/11/30 02:47:14;;;;;;;71.32;34.70;;;10.70;99.90;;;;;;4997969;28;20587;-85
2022/11/30 02:49:47;;;;;;;70.55;35.28;;;10.70;99.90;;;;;;4990408;28;20046;-85
2022/11/30 02:52:14;;;;;;;80.07;37.53;;;10.70;99.90;;;;;;4989515;28;20056;-85
2022/11/30 02:54:41;;;;;;;84.22;38.03;;;10.70;99.90;;;;;;4990286;28;20132;-85
2022/11/30 02:57:09;;;;;;;83.65;36.70;;;10.70;99.90;;;;;;4993361;28;20126;-85
2022/11/30 02:59:36;;;;;;;82.30;37.65;;;10.80;99.90;;;;;;4981202;28;20057;-85
2022/11/30 03:02:03;;;;;;;74.25;34.83;;;10.60;99.90;;;;;;5000321;28;20100;-85
2022/11/30 03:04:31;;;;;;;78.25;35.42;;;10.60;99.90;;;;;;4990899;28;20045;-85
2022/11/30 03:06:58;;;;;;;78.32;35.58;;;10.60;99.90;;;;;;4992773;28;20042;-85
2022/11/30 03:09:25;;;;;;;81.68;36.60;;;10.60;99.90;;;;;;4989172;28;20050;-85
2022/11/30 03:11:52;;;;;;;78.20;35.22;;;10.60;99.90;;;;;;4988189;28;20046;-85
2022/11/30 03:14:19;;;;;;;72.70;33.78;;;10.60;99.90;;;;;;4987043;28;20049;-85
2022/11/30 03:16:45;;;;;;;65.60;30.85;;;10.60;99.90;;;;;;4989728;28;20038;-85
2022/11/30 03:19:13;;;;;;;60.42;30.10;;;10.60;99.90;;;;;;4990573;28;20054;-85
2022/11/30 03:21:41;;;;;;;53.92;28.25;;;10.50;99.90;;;;;;4990430;28;20073;-85
2022/11/30 03:24:08;;;;;;;49.33;26.50;;;10.50;99.90;;;;;;4989471;28;20045;-85
2022/11/30 03:26:35;;;;;;;45.88;25.10;;;10.50;99.90;;;;;;4993012;28;20065;-85
2022/11/30 03:29:02;;;;;;;47.83;24.98;;;10.50;99.90;;;;;;4989947;28;20050;-85
2022/11/30 03:31:29;;;;;;;45.95;23.65;;;10.50;99.90;;;;;;4992505;28;20042;-85
2022/11/30 03:33:56;;;;;;;49.10;25.73;;;10.50;99.90;;;;;;4971243;28;20145;-85
2022/11/30 03:36:23;;;;;;;51.22;26.17;;;10.50;99.90;;;;;;4993105;28;20050;-85
2022/11/30 03:38:51;;;;;;;48.10;26.45;;;10.50;99.90;;;;;;4980515;28;20042;-85
2022/11/30 03:41:18;;;;;;;50.10;26.67;;;10.50;99.90;;;;;;4970466;28;20051;-85
2022/11/30 03:43:46;;;;;;;51.80;26.92;;;10.40;99.90;;;;;;4980920;28;20038;-85
2022/11/30 03:46:14;;;;;;;49.30;26.52;;;10.40;99.90;;;;;;4992608;28;20050;-85
2022/11/30 03:48:41;;;;;;;51.38;27.45;;;10.40;99.90;;;;;;4971444;28;20423;-85
2022/11/30 03:51:08;;;;;;;51.40;27.77;;;10.40;99.90;;;;;;4997415;28;20053;-85
2022/11/30 03:53:35;;;;;;;53.22;26.80;;;10.40;99.90;;;;;;4990498;28;20046;-85
2022/11/30 03:56:05;;;;;;;48.03;25.77;;;10.40;99.90;;;;;;4999255;28;20164;-85
2022/11/30 03:58:32;;;;;;;54.28;28.33;;;10.40;99.90;;;;;;4982570;28;20057;-85
2022/11/30 04:01:01;;;;;;;50.58;27.02;;;10.40;99.90;;;;;;4970397;28;20051;-85
2022/11/30 04:03:28;;;;;;;51.45;26.73;;;10.30;99.90;;;;;;4962553;28;20058;-85
2022/11/30 04:05:55;;;;;;;55.70;26.77;;;10.30;99.90;;;;;;4991935;28;20145;-86
2022/11/30 04:08:22;;;;;;;50.30;26.80;;;10.30;99.90;;;;;;4971976;28;20050;-85
2022/11/30 04:10:51;;;;;;;49.10;26.67;;;10.20;99.90;;;;;;4989827;28;20105;-85
2022/11/30 04:13:20;;;;;;;49.00;27.85;;;10.30;99.90;;;;;;4988728;28;20038;-85
2022/11/30 04:15:47;;;;;;;50.65;26.95;;;10.20;99.90;;;;;;4992494;28;20050;-85
2022/11/30 04:18:17;;;;;;;46.13;25.25;;;10.20;99.90;;;;;;4985343;28;20041;-85
2022/11/30 04:20:44;;;;;;;50.03;25.75;;;10.20;99.90;;;;;;4973241;28;20111;-85
2022/11/30 04:23:11;;;;;;;49.53;26.77;;;10.30;99.90;;;;;;5001492;28;20041;-85
2022/11/30 04:25:39;;;;;;;47.80;26.50;;;10.20;99.90;;;;;;4979063;28;20049;-85
2022/11/30 04:28:06;;;;;;;44.22;23.75;;;10.30;99.90;;;;;;4993320;28;20046;-86
2022/11/30 04:30:35;;;;;;;43.78;24.40;;;10.30;99.90;;;;;;4993218;28;20042;-84
2022/11/30 04:33:03;;;;;;;41.55;24.17;;;10.30;99.90;;;;;;4992685;28;20663;-85
2022/11/30 04:35:30;;;;;;;40.30;23.85;;;10.20;99.90;;;;;;4994992;28;20121;-83
2022/11/30 04:37:57;;;;;;;43.17;23.85;;;10.20;99.90;;;;;;4990068;28;20046;-85
2022/11/30 04:40:24;;;;;;;38.78;22.23;;;10.20;99.90;;;;;;5007338;28;20409;-84
2022/11/30 04:42:50;;;;;;;39.75;22.08;;;10.20;99.90;;;;;;5008991;28;20049;-83
2022/11/30 04:45:18;;;;;;;41.15;23.95;;;10.20;99.90;;;;;;4990824;28;20050;-82
2022/11/30 04:47:46;;;;;;;39.50;23.17;;;10.20;99.90;;;;;;4995463;28;20042;-83
2022/11/30 04:50:13;;;;;;;39.25;22.63;;;10.20;99.90;;;;;;4992632;28;20050;-83
2022/11/30 04:52:40;;;;;;;38.75;22.98;;;10.20;99.90;;;;;;4984468;28;20062;-83
2022/11/30 04:55:08;;;;;;;40.42;21.35;;;10.10;99.90;;;;;;4989933;28;20038;-84
2022/11/30 04:57:34;;;;;;;40.30;22.77;;;10.10;99.90;;;;;;4975503;28;20035;-83
2022/11/30 05:00:02;;;;;;;40.20;22.83;;;10.10;99.90;;;;;;4992164;28;20050;-82
2022/11/30 05:02:29;;;;;;;41.60;22.50;;;10.10;99.90;;;;;;4991990;28;20126;-83
2022/11/30 05:04:57;;;;;;;40.10;22.60;;;10.10;99.90;;;;;;4992990;28;20050;-84
2022/11/30 05:07:24;;;;;;;39.83;23.15;;;10.10;99.90;;;;;;4998018;28;20052;-83
2022/11/30 05:09:51;;;;;;;42.05;22.48;;;10.10;99.90;;;;;;4975024;28;20054;-83
2022/11/30 05:12:18;;;;;;;43.30;23.65;;;10.10;99.90;;;;;;4997191;28;20069;-84
2022/11/30 05:14:45;;;;;;;37.28;21.80;;;10.10;99.90;;;;;;4993089;28;20050;-84
2022/11/30 05:17:12;;;;;;;39.95;23.20;;;10.20;99.90;;;;;;4993097;28;20517;-84
2022/11/30 05:19:39;;;;;;;39.33;22.65;;;10.10;99.90;;;;;;4992097;28;20053;-87
2022/11/30 05:22:07;;;;;;;38.28;21.95;;;10.10;99.90;;;;;;4991885;28;20050;-86
2022/11/30 05:24:34;;;;;;;40.08;22.60;;;10.10;99.90;;;;;;4990930;28;20034;-84
2022/11/30 05:27:01;;;;;;;40.75;22.45;;;10.10;99.90;;;;;;4993067;28;20034;-84
2022/11/30 05:29:28;;;;;;;42.05;23.00;;;10.10;99.90;;;;;;4977918;28;20426;-86
2022/11/30 05:31:55;;;;;;;43.53;23.70;;;10.10;99.90;;;;;;4968685;28;20050;-85
2022/11/30 05:34:21;;;;;;;39.55;21.90;;;10.10;99.90;;;;;;4991547;28;20561;-86
2022/11/30 05:36:51;;;;;;;41.65;23.42;;;10.10;99.90;;;;;;4996398;28;20043;-80
2022/11/30 05:39:19;;;;;;;39.15;22.75;;;10.10;99.90;;;;;;4992242;28;20463;-86
2022/11/30 05:41:46;;;;;;;43.08;23.23;;;10.00;99.90;;;;;;4991935;28;20042;-87
2022/11/30 05:44:13;;;;;;;37.90;22.60;;;10.00;99.90;;;;;;4995984;28;20053;-86
2022/11/30 05:46:40;;;;;;;43.50;23.45;;;10.10;99.90;;;;;;4999696;28;20050;-84
2022/11/30 05:49:08;;;;;;;38.72;22.80;;;10.00;99.90;;;;;;4989890;28;20538;-85
2022/11/30 05:51:34;;;;;;;42.35;22.08;;;10.00;99.90;;;;;;5008730;28;20045;-85
2022/11/30 05:54:02;;;;;;;40.65;22.35;;;10.10;99.90;;;;;;5014256;28;20148;-84
2022/11/30 05:56:30;;;;;;;40.28;22.58;;;10.10;99.90;;;;;;4995961;28;20046;-85
2022/11/30 05:58:57;;;;;;;40.67;23.33;;;10.10;99.90;;;;;;4993512;28;20039;-88
2022/11/30 06:01:26;;;;;;;40.20;22.08;;;10.10;99.90;;;;;;4973630;28;20061;-81
2022/11/30 06:03:53;;;;;;;41.80;22.17;;;10.10;99.90;;;;;;5007917;28;20082;-82
2022/11/30 06:06:20;;;;;;;40.95;21.48;;;10.10;99.90;;;;;;5017185;28;20061;-81
2022/11/30 06:08:48;;;;;;;44.00;21.58;;;10.10;99.90;;;;;;5030323;28;20105;-78
2022/11/30 06:11:16;;;;;;;38.83;22.08;;;10.00;99.90;;;;;;5022326;28;20029;-81
2022/11/30 06:13:44;;;;;;;41.38;22.98;;;10.00;99.90;;;;;;4981818;28;20055;-79
2022/11/30 06:16:11;;;;;;;39.03;22.48;;;10.00;99.90;;;;;;4995134;28;20086;-84
2022/11/30 06:18:38;;;;;;;42.67;22.50;;;10.00;99.90;;;;;;5001934;28;20515;-80
2022/11/30 06:21:06;;;;;;;41.03;22.90;;;10.00;99.90;;;;;;4994214;28;20077;-81
2022/11/30 06:23:34;;;;;;;46.47;25.45;;;10.00;99.90;;;;;;5000438;28;20042;-82
2022/11/30 06:26:04;;;;;;;54.13;30.92;;;10.00;99.90;;;;;;4991893;28;20121;-82
2022/11/30 06:28:31;;;;;;;53.87;28.67;;;10.10;99.90;;;;;;4990212;28;20042;-84
2022/11/30 06:31:00;;;;;;;46.75;26.45;;;10.10;99.90;;;;;;4981076;28;20046;-83
2022/11/30 06:33:27;;;;;;;50.08;26.48;;;10.00;99.90;;;;;;4990581;28;20137;-87
2022/11/30 06:35:54;;;;;;;47.53;25.60;;;10.00;99.90;;;;;;4990394;28;20052;-83
2022/11/30 06:38:23;;;;;;;46.95;25.83;;;10.10;99.90;;;;;;4995617;28;20046;-83
2022/11/30 06:40:50;;;;;;;48.15;26.50;;;10.00;99.90;;;;;;5003820;28;20042;-84
2022/11/30 06:43:17;;;;;;;51.08;26.80;;;10.00;99.90;;;;;;5001903;28;20038;-85
2022/11/30 06:45:44;;;;;;;50.38;27.13;;;10.10;99.90;;;;;;4997583;28;20344;-83
2022/11/30 06:48:14;;;;;;;42.35;24.65;;;10.10;99.90;;;;;;4990648;28;20045;-83
2022/11/30 06:50:42;;;;;;;49.33;26.88;;;10.10;99.90;;;;;;4997631;28;20038;-83
2022/11/30 06:53:09;;;;;;;46.85;26.30;;;10.00;99.90;;;;;;4997047;28;20054;-83
2022/11/30 06:55:37;;;;;;;45.00;25.88;;;10.00;99.90;;;;;;4988232;28;20038;-83
2022/11/30 06:58:07;;;;;;;49.72;27.38;;;10.00;99.90;;;;;;4985651;28;20054;-84
2022/11/30 07:00:34;;;;;;;58.00;30.37;;;10.10;99.90;;;;;;4994522;28;20070;-83
2022/11/30 07:03:01;;;;;;;52.22;28.60;;;10.10;99.90;;;;;;4988207;28;20522;-84
2022/11/30 07:05:31;;;;;;;50.85;27.10;;;10.10;99.90;;;;;;4982697;28;20043;-84
2022/11/30 07:07:58;;;;;;;50.30;27.27;;;10.10;99.90;;;;;;4994325;28;20034;-83
2022/11/30 07:10:25;;;;;;;51.03;27.38;;;10.10;99.90;;;;;;4992668;28;20038;-84
2022/11/30 07:12:52;;;;;;;50.22;27.90;;;10.10;99.90;;;;;;4987119;28;20112;-84
2022/11/30 07:15:19;;;;;;;58.25;29.70;;;10.10;99.90;;;;;;4992151;28;20422;-84
2022/11/30 07:17:46;;;;;;;55.70;28.95;;;10.10;99.90;;;;;;4972753;28;20077;-84
2022/11/30 07:20:13;;;;;;;53.90;28.27;;;10.10;99.90;;;;;;4980802;28;20042;-85
2022/11/30 07:22:41;;;;;;;52.85;29.05;;;10.10;99.90;;;;;;4987945;28;20042;-83
2022/11/30 07:27:54;;;;;;;52.72;29.70;;;10.10;99.90;;;;;;4971879;28;20061;-84
2022/11/30 07:30:21;;;;;;;51.28;29.83;;;10.10;99.90;;;;;;4984361;28;20574;-85
2022/11/30 07:32:48;;;;;;;51.08;30.20;;;10.10;99.90;;;;;;4988662;28;20584;-84
2022/11/30 07:35:15;;;;;;;52.60;29.83;;;10.10;99.90;;;;;;4989089;28;20045;-83
2022/11/30 07:37:44;;;;;;;56.30;30.40;;;10.10;99.90;;;;;;4988624;28;20911;-83
2022/11/30 07:40:11;;;;;;;54.15;29.88;;;10.10;99.90;;;;;;4988350;28;20050;-83
2022/11/30 07:42:38;;;;;;;52.83;29.15;;;10.00;99.90;;;;;;4972026;28;20038;-83
2022/11/30 07:45:06;;;;;;;53.38;28.38;;;10.00;99.90;;;;;;5013083;23;20045;-82
2022/11/30 07:47:33;;;;;;;52.78;28.55;;;10.00;99.90;;;;;;4995773;28;20034;-81
2022/11/30 07:50:00;;;;;;;56.97;30.70;;;10.10;99.90;;;;;;4993724;28;20118;-82
2022/11/30 07:52:27;;;;;;;57.42;30.70;;;10.00;99.90;;;;;;4996646;28;20529;-81
2022/11/30 07:54:55;;;;;;;55.03;29.65;;;10.00;99.90;;;;;;4993380;28;20050;-82
2022/11/30 07:57:25;;;;;;;53.30;29.00;;;10.00;99.90;;;;;;4989120;28;20578;-80
2022/11/30 07:59:52;;;;;;;55.28;29.83;;;10.00;99.90;;;;;;4987302;28;20315;-81
2022/11/30 08:02:18;;;;;;;51.47;28.20;;;10.00;99.90;;;;;;4984607;28;20159;-80
2022/11/30 08:04:45;;;;;;;58.10;29.88;;;10.00;99.90;;;;;;4984933;28;20113;-81
2022/11/30 08:07:13;;;;;;;52.30;29.58;;;10.00;99.90;;;;;;4993629;28;20568;-81
2022/11/30 08:09:40;;;;;;;53.75;30.33;;;10.00;99.90;;;;;;4990803;28;20049;-79
2022/11/30 08:12:09;;;;;;;53.33;28.90;;;10.00;99.90;;;;;;4983995;28;20165;-80
2022/11/30 08:14:36;;;;;;;55.90;29.20;;;10.00;99.90;;;;;;4984519;28;20046;-80
2022/11/30 08:17:03;;;;;;;55.00;30.45;;;10.10;99.90;;;;;;4988163;28;20039;-80
2022/11/30 08:19:30;;;;;;;55.85;30.58;;;10.10;99.90;;;;;;4984203;28;20141;-80
2022/11/30 08:21:57;;;;;;;56.03;31.60;;;10.10;99.90;;;;;;4979073;28;20143;-80
2022/11/30 08:24:24;;;;;;;59.88;31.60;;;10.00;99.90;;;;;;4982044;28;20120;-80
2022/11/30 08:26:51;;;;;;;57.40;30.08;;;10.00;99.90;;;;;;4984468;28;20072;-80
2022/11/30 08:29:20;;;;;;;49.13;28.25;;;10.10;99.90;;;;;;4973777;28;20047;-80
2022/11/30 08:31:47;;;;;;;57.13;30.35;;;10.00;99.90;;;;;;4983997;28;20050;-80
2022/11/30 08:34:14;;;;;;;57.38;31.17;;;10.10;99.90;;;;;;4982012;28;20070;-80
2022/11/30 08:36:42;;;;;;;54.65;29.00;;;10.10;99.90;;;;;;4986326;28;20044;-80
2022/11/30 08:39:12;;;;;;;60.40;31.73;;;10.10;99.90;;;;;;4986745;28;20038;-80
2022/11/30 08:41:39;;;;;;;55.15;29.63;;;10.10;99.90;;;;;;4971257;28;20042;-80
2022/11/30 08:44:06;;;;;;;55.47;30.35;;;10.10;99.90;;;;;;4982335;28;20057;-80
2022/11/30 08:46:35;;;;;;;51.97;29.52;;;10.10;99.90;;;;;;4987214;28;20034;-80
2022/11/30 08:49:02;;;;;;;54.90;29.20;;;10.10;99.90;;;;;;4986164;28;20034;-81
2022/11/30 08:51:29;;;;;;;55.42;30.95;;;10.10;99.90;;;;;;4987905;28;20039;-78
2022/11/30 08:53:56;;;;;;;54.80;30.20;;;10.10;99.90;;;;;;4983871;28;20057;-77
2022/11/30 08:56:24;;;;;;;57.72;30.50;;;10.10;99.90;;;;;;4995091;28;20113;-77
2022/11/30 08:58:51;;;;;;;58.30;31.67;;;10.10;99.90;;;;;;4985714;28;20043;-78
2022/11/30 09:01:20;;;;;;;62.63;33.28;;;10.10;99.90;;;;;;4988615;28;20559;-78
2022/11/30 09:03:49;;;;;;;58.45;32.42;;;10.10;99.90;;;;;;4987268;28;20415;-79
2022/11/30 09:06:17;;;;;;;63.22;32.80;;;10.20;99.90;;;;;;4989021;28;20297;-78
2022/11/30 09:08:46;;;;;;;57.92;33.13;;;10.20;99.90;;;;;;4990879;28;20038;-78
2022/11/30 09:11:15;;;;;;;60.70;33.45;;;10.20;99.90;;;;;;4970498;28;20453;-78
2022/11/30 09:13:43;;;;;;;57.40;32.92;;;10.10;99.90;;;;;;4999595;28;20502;-79
2022/11/30 09:16:10;;;;;;;66.07;33.55;;;10.10;99.90;;;;;;4991644;28;20125;-78
2022/11/30 09:18:37;;;;;;;61.40;33.50;;;10.10;99.90;;;;;;4992339;28;20398;-79
2022/11/30 09:21:07;;;;;;;59.65;32.30;;;10.10;99.90;;;;;;4984620;28;20034;-78
2022/11/30 09:23:35;;;;;;;69.28;34.10;;;10.10;99.90;;;;;;4976753;28;20109;-78
2022/11/30 09:26:04;;;;;;;63.85;33.45;;;10.10;99.90;;;;;;4992176;28;20050;-79
2022/11/30 09:28:32;;;;;;;64.18;35.53;;;10.10;99.90;;;;;;4983307;28;20047;-78
2022/11/30 09:31:01;;;;;;;68.53;37.42;;;10.20;99.90;;;;;;4987883;28;20061;-79
2022/11/30 09:33:28;;;;;;;71.60;36.97;;;10.10;99.90;;;;;;4989125;28;20038;-78
2022/11/30 09:35:56;;;;;;;76.70;39.67;;;10.20;99.90;;;;;;4991259;28;20503;-79
2022/11/30 09:38:25;;;;;;;76.78;40.83;;;10.20;99.90;;;;;;4990787;28;20034;-79
2022/11/30 09:40:55;;;;;;;88.18;42.28;;;10.20;99.90;;;;;;4990691;28;20522;-79
2022/11/30 09:43:30;;;;;;;80.33;39.87;;;10.20;99.90;;;;;;4989589;28;20617;-79
2022/11/30 09:45:59;;;;;;;86.10;42.63;;;10.10;99.90;;;;;;4983648;28;20395;-79
2022/11/30 09:48:37;;;;;;;76.00;38.92;;;10.20;99.90;;;;;;4985555;28;20035;-79
2022/11/30 09:51:10;;;;;;;82.25;41.58;;;10.20;99.90;;;;;;4985506;28;20046;-78
2022/11/30 09:53:42;;;;;;;73.90;38.47;;;10.10;99.90;;;;;;4987392;28;20069;-79
2022/11/30 09:56:21;;;;;;;83.45;39.30;;;10.10;99.90;;;;;;4973252;28;20145;-78
2022/11/30 09:58:52;;;;;;;80.68;40.60;;;10.10;99.90;;;;;;4987659;28;20130;-79
2022/11/30 10:01:20;;;;;;;79.00;38.83;;;10.10;99.90;;;;;;4989629;28;20113;-79
2022/11/30 10:03:47;;;;;;;80.65;38.55;;;10.10;99.90;;;;;;4988515;28;20060;-79
2022/11/30 10:06:22;;;;;;;93.70;42.00;;;10.10;99.90;;;;;;4989602;28;20073;-80
2022/11/30 10:09:00;;;;;;;76.75;37.03;;;10.10;99.90;;;;;;4988108;28;20101;-79
2022/11/30 10:11:51;;;;;;;84.35;39.35;;;10.10;99.90;;;;;;4996346;28;20483;-79
2022/11/30 10:14:51;;;;;;;84.90;38.28;;;10.10;99.90;;;;;;4983392;28;20104;-79
2022/11/30 10:17:30;;;;;;;86.13;38.92;;;10.10;99.90;;;;;;4982779;28;20077;-80
2022/11/30 10:20:10;;;;;;;83.30;39.90;;;10.10;99.90;;;;;;4988510;28;20087;-79
2022/11/30 10:23:02;;;;;;;83.28;39.60;;;10.10;99.90;;;;;;4985180;28;20046;-79
2022/11/30 10:25:37;;;;;;;85.28;38.35;;;10.10;99.90;;;;;;4993850;28;20038;-80
2022/11/30 10:28:15;;;;;;;79.25;38.90;;;10.10;99.90;;;;;;4996971;28;20096;-80
2022/11/30 10:30:42;;;;;;;84.80;39.08;;;10.10;99.90;;;;;;4989144;28;20104;-80
2022/11/30 10:33:14;;;;;;;75.00;38.40;;;10.20;99.90;;;;;;4990588;28;20536;-79
2022/11/30 10:35:44;;;;;;;75.85;37.78;;;10.10;99.90;;;;;;4989379;28;20100;-79
2022/11/30 10:38:15;;;;;;;83.43;38.70;;;10.10;99.90;;;;;;4995191;28;20066;-79
2022/11/30 10:40:47;;;;;;;80.53;38.83;;;10.10;99.90;;;;;;4992417;28;20046;-79
2022/11/30 10:43:18;;;;;;;83.95;39.72;;;10.10;99.90;;;;;;4989611;28;20137;-79
2022/11/30 10:45:48;;;;;;;83.75;40.17;;;10.10;99.90;;;;;;4994250;28;20644;-79
2022/11/30 10:48:17;;;;;;;80.95;38.80;;;10.20;99.90;;;;;;4997934;28;20049;-80
2022/11/30 10:50:45;;;;;;;79.70;37.92;;;10.10;99.90;;;;;;4990801;28;20044;-81
2022/11/30 10:53:12;;;;;;;86.00;39.83;;;10.20;99.90;;;;;;4981580;28;20042;-81
2022/11/30 10:55:42;;;;;;;71.70;36.70;;;10.20;99.90;;;;;;4996133;28;20046;-80
2022/11/30 10:58:17;;;;;;;73.50;37.08;;;10.10;99.90;;;;;;4992289;28;20046;-80
2022/11/30 11:00:45;;;;;;;72.22;35.42;;;10.10;99.90;;;;;;4989382;28;20495;-79
2022/11/30 11:03:23;;;;;;;69.80;34.75;;;10.10;99.90;;;;;;4986473;28;20042;-78
2022/11/30 11:06:03;;;;;;;69.53;34.25;;;10.10;99.90;;;;;;4971058;28;20173;-78
2022/11/30 11:08:30;;;;;;;70.93;34.55;;;10.10;99.90;;;;;;4985416;28;20544;-79
2022/11/30 11:10:57;;;;;;;70.38;34.75;;;10.20;99.90;;;;;;4978321;28;20043;-79
2022/11/30 11:13:38;;;;;;;68.00;33.40;;;10.20;99.90;;;;;;4988059;28;20050;-79
2022/11/30 11:16:08;;;;;;;68.88;34.03;;;10.20;99.90;;;;;;4980363;28;20073;-79
2022/11/30 11:18:35;;;;;;;66.40;33.40;;;10.20;99.90;;;;;;4974762;28;20121;-79
2022/11/30 11:21:05;;;;;;;72.82;34.47;;;10.20;99.90;;;;;;4965549;28;20217;-79
2022/11/30 11:23:34;;;;;;;68.05;34.15;;;10.20;99.90;;;;;;4949056;28;20057;-79
2022/11/30 11:26:01;;;;;;;65.18;32.60;;;10.20;99.90;;;;;;4964334;28;20057;-79
2022/11/30 11:28:29;;;;;;;71.43;35.00;;;10.20;99.90;;;;;;4984345;28;20046;-79
2022/11/30 11:30:58;;;;;;;64.57;33.08;;;10.20;99.90;;;;;;4978546;28;20058;-79
2022/11/30 11:33:27;;;;;;;69.82;35.53;;;10.20;99.90;;;;;;4987232;28;20474;-79
2022/11/30 11:35:55;;;;;;;68.57;34.75;;;10.20;99.90;;;;;;4987719;28;20074;-79
2022/11/30 11:38:24;;;;;;;67.88;33.47;;;10.20;99.90;;;;;;4988587;28;20817;-79
2022/11/30 11:40:54;;;;;;;70.40;35.75;;;10.20;99.90;;;;;;4984214;28;20065;-79
2022/11/30 11:43:21;;;;;;;70.85;35.03;;;10.20;99.90;;;;;;4985428;28;20050;-79
2022/11/30 11:45:52;;;;;;;74.95;36.60;;;10.30;99.90;;;;;;4987728;28;20038;-79
2022/11/30 11:48:30;;;;;;;71.97;36.35;;;10.20;99.90;;;;;;4983671;28;20042;-79
2022/11/30 11:50:58;;;;;;;72.57;35.78;;;10.30;99.90;;;;;;4983465;28;20421;-79
2022/11/30 11:53:40;;;;;;;69.63;35.78;;;10.20;99.90;;;;;;4979502;28;20050;-79
2022/11/30 11:56:12;;;;;;;68.70;34.30;;;10.20;99.90;;;;;;4980592;28;20632;-77
2022/11/30 11:58:43;;;;;;;69.00;35.95;;;10.20;99.90;;;;;;4992690;28;20125;-77
2022/11/30 12:01:15;;;;;;;73.68;35.72;;;10.30;99.90;;;;;;4984290;28;20570;-78
2022/11/30 12:03:50;;;;;;;65.22;33.20;;;10.20;99.90;;;;;;4977249;28;20491;-78
2022/11/30 12:06:17;;;;;;;62.72;32.97;;;10.20;99.90;;;;;;4988584;28;20132;-78
2022/11/30 12:08:46;;;;;;;67.93;32.55;;;10.30;99.90;;;;;;4989723;28;20133;-79
2022/11/30 12:11:16;;;;;;;64.78;32.15;;;10.30;99.90;;;;;;4988412;28;20054;-79
2022/11/30 12:13:45;;;;;;;65.57;33.00;;;10.30;99.90;;;;;;4987258;28;20053;-79
2022/11/30 12:16:23;;;;;;;60.70;32.42;;;10.30;99.90;;;;;;4993193;28;20126;-78
2022/11/30 12:18:54;;;;;;;49.47;28.67;;;10.40;99.90;;;;;;4993528;28;20077;-78
2022/11/30 12:21:31;;;;;;;56.17;29.52;;;10.30;99.90;;;;;;4983996;28;20117;-78
2022/11/30 12:24:19;;;;;;;56.33;28.95;;;10.30;99.90;;;;;;4987861;28;20130;-79
2022/11/30 12:26:48;;;;;;;54.85;28.88;;;10.30;99.90;;;;;;4987907;28;20129;-79
2022/11/30 12:29:22;;;;;;;55.45;29.58;;;10.30;99.90;;;;;;4986899;28;20046;-78
2022/11/30 12:32:06;;;;;;;58.08;31.40;;;10.30;99.90;;;;;;4987840;28;20137;-78
2022/11/30 12:34:48;;;;;;;53.90;30.88;;;10.30;99.90;;;;;;4991455;28;20065;-79
2022/11/30 12:37:22;;;;;;;51.05;28.67;;;10.30;99.90;;;;;;4979483;28;20049;-78
2022/11/30 12:39:55;;;;;;;50.97;28.02;;;10.30;99.90;;;;;;4991065;28;20108;-79